sensor_id;sensor_type;location;lat;lon;timestamp;P1;durP1;ratioP1;P2;durP2;ratioP2
9052;SDS011;4561;47.450;7.516;2022-09-12T00:00:37;2.80;;;1.50;;
9052;SDS011;4561;47.450;7.516;2022-09-12T00:03:59;1.50;;;1.40;;
9052;SDS011;4561;47.450;7.516;2022-09-12T00:07:20;5.57;;;1.50;;
9052;SDS011;4561;47.450;7.516;2022-09-12T00:10:41;4.70;;;1.50;;
9052;SDS011;4561;47.450;7.516;2022-09-12T00:14:03;2.07;;;1.63;;
9052;SDS011;4561;47.450;7.516;2022-09-12T00:17:24;2.80;;;1.60;;
9052;SDS011;4561;47.450;7.516;2022-09-12T00:20:45;4.07;;;1.60;;
9052;SDS011;4561;47.450;7.516;2022-09-12T00:24:06;2.50;;;1.43;;
9052;SDS011;4561;47.450;7.516;2022-09-12T00:27:28;3.83;;;1.40;;
9052;SDS011;4561;47.450;7.516;2022-09-12T00:30:48;4.10;;;1.20;;
9052;SDS011;4561;47.450;7.516;2022-09-12T00:34:09;2.83;;;1.40;;
9052;SDS011;4561;47.450;7.516;2022-09-12T00:37:29;1.30;;;1.20;;
9052;SDS011;4561;47.450;7.516;2022-09-12T00:40:50;2.63;;;1.30;;
9052;SDS011;4561;47.450;7.516;2022-09-12T00:47:42;4.13;;;1.70;;
9052;SDS011;4561;47.450;7.516;2022-09-12T00:51:03;1.90;;;1.50;;
9052;SDS011;4561;47.450;7.516;2022-09-12T00:54:27;3.43;;;1.30;;
9052;SDS011;4561;47.450;7.516;2022-09-12T00:57:51;2.20;;;1.80;;
9052;SDS011;4561;47.450;7.516;2022-09-12T01:01:14;5.27;;;1.80;;
9052;SDS011;4561;47.450;7.516;2022-09-12T01:04:35;2.37;;;1.60;;
9052;SDS011;4561;47.450;7.516;2022-09-12T01:07:57;1.93;;;1.23;;
9052;SDS011;4561;47.450;7.516;2022-09-12T01:11:20;4.30;;;1.37;;
9052;SDS011;4561;47.450;7.516;2022-09-12T01:14:41;3.90;;;1.47;;
9052;SDS011;4561;47.450;7.516;2022-09-12T01:21:32;2.47;;;1.53;;
9052;SDS011;4561;47.450;7.516;2022-09-12T01:25:09;2.80;;;1.47;;
9052;SDS011;4561;47.450;7.516;2022-09-12T01:28:59;3.47;;;1.33;;
9052;SDS011;4561;47.450;7.516;2022-09-12T01:40:16;3.37;;;2.10;;
9052;SDS011;4561;47.450;7.516;2022-09-12T01:47:09;4.00;;;2.00;;
9052;SDS011;4561;47.450;7.516;2022-09-12T01:50:33;2.37;;;2.00;;
9052;SDS011;4561;47.450;7.516;2022-09-12T01:53:59;3.00;;;2.70;;
9052;SDS011;4561;47.450;7.516;2022-09-12T01:57:30;3.07;;;2.03;;
9052;SDS011;4561;47.450;7.516;2022-09-12T02:08:27;4.00;;;2.20;;
9052;SDS011;4561;47.450;7.516;2022-09-12T02:11:56;2.90;;;2.03;;
9052;SDS011;4561;47.450;7.516;2022-09-12T02:15:19;2.97;;;2.07;;
9052;SDS011;4561;47.450;7.516;2022-09-12T02:18:43;3.17;;;2.20;;
9052;SDS011;4561;47.450;7.516;2022-09-12T02:22:05;3.50;;;2.07;;
9052;SDS011;4561;47.450;7.516;2022-09-12T02:25:27;2.93;;;2.23;;
9052;SDS011;4561;47.450;7.516;2022-09-12T02:28:50;3.13;;;2.07;;
9052;SDS011;4561;47.450;7.516;2022-09-12T02:39:10;2.47;;;2.03;;
9052;SDS011;4561;47.450;7.516;2022-09-12T02:42:30;2.57;;;1.80;;
9052;SDS011;4561;47.450;7.516;2022-09-12T02:45:56;2.00;;;1.90;;
9052;SDS011;4561;47.450;7.516;2022-09-12T02:49:16;4.63;;;2.20;;
9052;SDS011;4561;47.450;7.516;2022-09-12T02:52:37;2.83;;;2.17;;
9052;SDS011;4561;47.450;7.516;2022-09-12T02:55:58;4.07;;;2.10;;
9052;SDS011;4561;47.450;7.516;2022-09-12T02:59:19;1.67;;;1.47;;
9052;SDS011;4561;47.450;7.516;2022-09-12T03:02:53;5.90;;;2.33;;
9052;SDS011;4561;47.450;7.516;2022-09-12T03:28:39;4.53;;;2.40;;
9052;SDS011;4561;47.450;7.516;2022-09-12T03:32:01;3.73;;;1.90;;
9052;SDS011;4561;47.450;7.516;2022-09-12T03:35:22;2.80;;;2.03;;
9052;SDS011;4561;47.450;7.516;2022-09-12T03:38:43;3.60;;;2.30;;
9052;SDS011;4561;47.450;7.516;2022-09-12T03:42:03;2.70;;;1.93;;
9052;SDS011;4561;47.450;7.516;2022-09-12T03:45:23;4.93;;;2.60;;
9052;SDS011;4561;47.450;7.516;2022-09-12T03:48:44;3.53;;;2.47;;
9052;SDS011;4561;47.450;7.516;2022-09-12T03:52:04;4.97;;;2.40;;
9052;SDS011;4561;47.450;7.516;2022-09-12T03:55:25;3.90;;;2.60;;
9052;SDS011;4561;47.450;7.516;2022-09-12T03:58:45;3.17;;;2.20;;
9052;SDS011;4561;47.450;7.516;2022-09-12T04:02:06;3.07;;;2.80;;
9052;SDS011;4561;47.450;7.516;2022-09-12T04:05:26;6.00;;;2.20;;
9052;SDS011;4561;47.450;7.516;2022-09-12T04:08:47;3.03;;;2.00;;
9052;SDS011;4561;47.450;7.516;2022-09-12T04:12:11;3.90;;;2.37;;
9052;SDS011;4561;47.450;7.516;2022-09-12T04:15:34;2.80;;;2.20;;
9052;SDS011;4561;47.450;7.516;2022-09-12T04:18:57;2.73;;;2.00;;
9052;SDS011;4561;47.450;7.516;2022-09-12T04:22:19;2.70;;;2.07;;
9052;SDS011;4561;47.450;7.516;2022-09-12T04:25:40;5.20;;;1.97;;
9052;SDS011;4561;47.450;7.516;2022-09-12T04:29:00;3.27;;;1.60;;
9052;SDS011;4561;47.450;7.516;2022-09-12T04:32:20;2.67;;;2.10;;
9052;SDS011;4561;47.450;7.516;2022-09-12T04:35:41;6.40;;;2.47;;
9052;SDS011;4561;47.450;7.516;2022-09-12T04:39:02;2.50;;;2.30;;
9052;SDS011;4561;47.450;7.516;2022-09-12T04:42:26;3.93;;;2.77;;
9052;SDS011;4561;47.450;7.516;2022-09-12T04:45:47;3.07;;;2.20;;
9052;SDS011;4561;47.450;7.516;2022-09-12T04:49:07;3.43;;;2.50;;
9052;SDS011;4561;47.450;7.516;2022-09-12T04:52:28;3.83;;;1.93;;
9052;SDS011;4561;47.450;7.516;2022-09-12T04:55:48;4.00;;;2.20;;
9052;SDS011;4561;47.450;7.516;2022-09-12T04:59:11;2.80;;;2.10;;
9052;SDS011;4561;47.450;7.516;2022-09-12T05:02:32;3.50;;;2.50;;
9052;SDS011;4561;47.450;7.516;2022-09-12T05:05:53;3.17;;;2.83;;
9052;SDS011;4561;47.450;7.516;2022-09-12T05:09:13;2.30;;;2.10;;
9052;SDS011;4561;47.450;7.516;2022-09-12T05:12:35;2.83;;;2.60;;
9052;SDS011;4561;47.450;7.516;2022-09-12T05:15:59;2.70;;;2.20;;
9052;SDS011;4561;47.450;7.516;2022-09-12T05:19:21;3.17;;;1.80;;
9052;SDS011;4561;47.450;7.516;2022-09-12T05:22:44;1.90;;;1.80;;
9052;SDS011;4561;47.450;7.516;2022-09-12T05:26:05;4.70;;;2.10;;
9052;SDS011;4561;47.450;7.516;2022-09-12T05:29:30;3.93;;;2.00;;
9052;SDS011;4561;47.450;7.516;2022-09-12T05:32:50;3.70;;;2.20;;
9052;SDS011;4561;47.450;7.516;2022-09-12T05:36:16;3.73;;;2.30;;
9052;SDS011;4561;47.450;7.516;2022-09-12T05:39:40;2.63;;;1.70;;
9052;SDS011;4561;47.450;7.516;2022-09-12T05:43:01;2.70;;;1.60;;
9052;SDS011;4561;47.450;7.516;2022-09-12T05:46:25;3.93;;;3.33;;
9052;SDS011;4561;47.450;7.516;2022-09-12T05:49:49;1.60;;;1.50;;
9052;SDS011;4561;47.450;7.516;2022-09-12T05:53:14;3.50;;;1.80;;
9052;SDS011;4561;47.450;7.516;2022-09-12T05:56:37;5.97;;;1.70;;
9052;SDS011;4561;47.450;7.516;2022-09-12T05:59:59;2.30;;;2.20;;
9052;SDS011;4561;47.450;7.516;2022-09-12T06:03:20;4.27;;;2.40;;
9052;SDS011;4561;47.450;7.516;2022-09-12T06:06:41;4.03;;;1.90;;
9052;SDS011;4561;47.450;7.516;2022-09-12T06:10:04;2.83;;;1.87;;
9052;SDS011;4561;47.450;7.516;2022-09-12T06:13:24;2.10;;;1.90;;
9052;SDS011;4561;47.450;7.516;2022-09-12T06:16:45;5.57;;;2.93;;
9052;SDS011;4561;47.450;7.516;2022-09-12T06:20:08;1.57;;;1.43;;
9052;SDS011;4561;47.450;7.516;2022-09-12T06:23:29;2.17;;;1.67;;
9052;SDS011;4561;47.450;7.516;2022-09-12T06:26:51;1.80;;;1.70;;
9052;SDS011;4561;47.450;7.516;2022-09-12T06:30:12;2.40;;;2.20;;
9052;SDS011;4561;47.450;7.516;2022-09-12T06:33:33;1.73;;;1.63;;
9052;SDS011;4561;47.450;7.516;2022-09-12T06:36:57;4.13;;;2.07;;
9052;SDS011;4561;47.450;7.516;2022-09-12T06:40:17;4.73;;;1.90;;
9052;SDS011;4561;47.450;7.516;2022-09-12T06:43:38;2.37;;;1.87;;
9052;SDS011;4561;47.450;7.516;2022-09-12T06:46:59;1.60;;;1.50;;
9052;SDS011;4561;47.450;7.516;2022-09-12T06:50:19;3.37;;;1.47;;
9052;SDS011;4561;47.450;7.516;2022-09-12T06:53:43;1.97;;;1.40;;
9052;SDS011;4561;47.450;7.516;2022-09-12T06:57:04;1.67;;;1.50;;
9052;SDS011;4561;47.450;7.516;2022-09-12T07:00:24;1.33;;;1.20;;
9052;SDS011;4561;47.450;7.516;2022-09-12T07:03:52;2.03;;;1.30;;
9052;SDS011;4561;47.450;7.516;2022-09-12T07:07:16;1.67;;;1.10;;
9052;SDS011;4561;47.450;7.516;2022-09-12T07:10:36;1.73;;;1.50;;
9052;SDS011;4561;47.450;7.516;2022-09-12T07:13:57;1.30;;;1.17;;
9052;SDS011;4561;47.450;7.516;2022-09-12T07:17:18;1.33;;;1.23;;
9052;SDS011;4561;47.450;7.516;2022-09-12T07:20:41;3.10;;;1.23;;
9052;SDS011;4561;47.450;7.516;2022-09-12T07:24:04;2.03;;;1.30;;
9052;SDS011;4561;47.450;7.516;2022-09-12T07:27:27;1.40;;;1.30;;
9052;SDS011;4561;47.450;7.516;2022-09-12T07:30:51;1.30;;;1.20;;
9052;SDS011;4561;47.450;7.516;2022-09-12T07:34:14;2.30;;;1.40;;
9052;SDS011;4561;47.450;7.516;2022-09-12T07:37:37;1.83;;;1.23;;
9052;SDS011;4561;47.450;7.516;2022-09-12T07:40:59;2.03;;;1.27;;
9052;SDS011;4561;47.450;7.516;2022-09-12T07:44:20;1.70;;;1.17;;
9052;SDS011;4561;47.450;7.516;2022-09-12T07:47:41;1.50;;;1.40;;
9052;SDS011;4561;47.450;7.516;2022-09-12T07:51:03;1.20;;;1.10;;
9052;SDS011;4561;47.450;7.516;2022-09-12T07:54:27;1.45;;;1.27;;
9052;SDS011;4561;47.450;7.516;2022-09-12T07:57:48;2.60;;;1.42;;
9052;SDS011;4561;47.450;7.516;2022-09-12T08:01:19;2.45;;;1.58;;
9052;SDS011;4561;47.450;7.516;2022-09-12T08:04:42;1.88;;;1.25;;
9052;SDS011;4561;47.450;7.516;2022-09-12T08:08:06;2.55;;;1.27;;
9052;SDS011;4561;47.450;7.516;2022-09-12T08:11:29;3.88;;;1.45;;
9052;SDS011;4561;47.450;7.516;2022-09-12T08:14:50;2.00;;;1.33;;
9052;SDS011;4561;47.450;7.516;2022-09-12T08:18:10;1.95;;;1.20;;
9052;SDS011;4561;47.450;7.516;2022-09-12T08:21:31;1.77;;;1.10;;
9052;SDS011;4561;47.450;7.516;2022-09-12T08:24:52;1.63;;;1.52;;
9052;SDS011;4561;47.450;7.516;2022-09-12T08:28:12;2.63;;;1.50;;
9052;SDS011;4561;47.450;7.516;2022-09-12T08:31:35;2.47;;;1.50;;
9052;SDS011;4561;47.450;7.516;2022-09-12T08:34:56;3.47;;;1.50;;
9052;SDS011;4561;47.450;7.516;2022-09-12T08:38:16;3.08;;;1.70;;
9052;SDS011;4561;47.450;7.516;2022-09-12T08:41:38;1.35;;;1.20;;
9052;SDS011;4561;47.450;7.516;2022-09-12T08:45:16;2.67;;;1.67;;
9052;SDS011;4561;47.450;7.516;2022-09-12T08:48:42;2.05;;;1.40;;
9052;SDS011;4561;47.450;7.516;2022-09-12T08:52:06;1.77;;;1.40;;
9052;SDS011;4561;47.450;7.516;2022-09-12T08:59:23;3.05;;;1.55;;
9052;SDS011;4561;47.450;7.516;2022-09-12T09:11:17;1.95;;;1.40;;
9052;SDS011;4561;47.450;7.516;2022-09-12T09:18:11;3.20;;;2.20;;
9052;SDS011;4561;47.450;7.516;2022-09-12T09:28:47;2.63;;;1.30;;
9052;SDS011;4561;47.450;7.516;2022-09-12T09:32:14;2.58;;;1.40;;
9052;SDS011;4561;47.450;7.516;2022-09-12T09:35:44;3.42;;;1.35;;
9052;SDS011;4561;47.450;7.516;2022-09-12T09:39:26;3.10;;;1.30;;
9052;SDS011;4561;47.450;7.516;2022-09-12T09:46:24;1.50;;;1.20;;
9052;SDS011;4561;47.450;7.516;2022-09-12T09:49:46;2.42;;;0.98;;
9052;SDS011;4561;47.450;7.516;2022-09-12T09:53:08;1.95;;;0.90;;
9052;SDS011;4561;47.450;7.516;2022-09-12T09:56:34;1.65;;;1.00;;
9052;SDS011;4561;47.450;7.516;2022-09-12T10:03:55;1.02;;;0.80;;
9052;SDS011;4561;47.450;7.516;2022-09-12T10:07:18;3.78;;;1.00;;
9052;SDS011;4561;47.450;7.516;2022-09-12T10:10:51;2.55;;;0.88;;
9052;SDS011;4561;47.450;7.516;2022-09-12T10:17:56;2.53;;;1.00;;
9052;SDS011;4561;47.450;7.516;2022-09-12T10:21:24;1.08;;;0.80;;
9052;SDS011;4561;47.450;7.516;2022-09-12T10:25:08;1.98;;;0.93;;
9052;SDS011;4561;47.450;7.516;2022-09-12T10:28:37;2.72;;;1.10;;
9052;SDS011;4561;47.450;7.516;2022-09-12T10:32:02;1.42;;;0.80;;
9052;SDS011;4561;47.450;7.516;2022-09-12T10:35:28;3.42;;;0.70;;
9052;SDS011;4561;47.450;7.516;2022-09-12T10:38:52;1.05;;;0.90;;
9052;SDS011;4561;47.450;7.516;2022-09-12T10:42:14;1.92;;;0.82;;
9052;SDS011;4561;47.450;7.516;2022-09-12T10:45:36;1.75;;;1.00;;
9052;SDS011;4561;47.450;7.516;2022-09-12T10:52:48;2.67;;;0.80;;
9052;SDS011;4561;47.450;7.516;2022-09-12T10:56:12;1.10;;;0.75;;
9052;SDS011;4561;47.450;7.516;2022-09-12T11:07:39;1.48;;;0.93;;
9052;SDS011;4561;47.450;7.516;2022-09-12T11:11:20;0.63;;;0.57;;
9052;SDS011;4561;47.450;7.516;2022-09-12T11:33:39;1.52;;;0.50;;
9052;SDS011;4561;47.450;7.516;2022-09-12T11:40:48;0.68;;;0.57;;
9052;SDS011;4561;47.450;7.516;2022-09-12T11:44:14;1.48;;;0.90;;
9052;SDS011;4561;47.450;7.516;2022-09-12T11:47:38;3.78;;;0.88;;
9052;SDS011;4561;47.450;7.516;2022-09-12T11:50:59;1.52;;;0.90;;
9052;SDS011;4561;47.450;7.516;2022-09-12T11:54:32;3.10;;;1.20;;
9052;SDS011;4561;47.450;7.516;2022-09-12T11:57:55;1.50;;;0.88;;
9052;SDS011;4561;47.450;7.516;2022-09-12T12:01:22;1.77;;;1.25;;
9052;SDS011;4561;47.450;7.516;2022-09-12T12:05:08;2.38;;;0.80;;
9052;SDS011;4561;47.450;7.516;2022-09-12T12:08:39;2.70;;;0.90;;
9052;SDS011;4561;47.450;7.516;2022-09-12T12:12:04;2.05;;;1.23;;
9052;SDS011;4561;47.450;7.516;2022-09-12T12:15:26;4.47;;;1.27;;
9052;SDS011;4561;47.450;7.516;2022-09-12T12:18:55;3.13;;;0.90;;
9052;SDS011;4561;47.450;7.516;2022-09-12T12:22:20;1.15;;;0.98;;
9052;SDS011;4561;47.450;7.516;2022-09-12T12:26:43;3.95;;;0.90;;
9052;SDS011;4561;47.450;7.516;2022-09-12T12:29:51;1.40;;;1.20;;
9052;SDS011;4561;47.450;7.516;2022-09-12T12:36:35;2.55;;;0.80;;
9052;SDS011;4561;47.450;7.516;2022-09-12T12:39:58;1.15;;;0.73;;
9052;SDS011;4561;47.450;7.516;2022-09-12T12:43:27;1.15;;;1.05;;
9052;SDS011;4561;47.450;7.516;2022-09-12T12:50:37;1.45;;;0.77;;
9052;SDS011;4561;47.450;7.516;2022-09-12T12:54:02;1.80;;;0.77;;
9052;SDS011;4561;47.450;7.516;2022-09-12T12:57:32;2.30;;;1.02;;
9052;SDS011;4561;47.450;7.516;2022-09-12T13:04:26;1.83;;;0.77;;
9052;SDS011;4561;47.450;7.516;2022-09-12T13:11:45;1.10;;;0.80;;
9052;SDS011;4561;47.450;7.516;2022-09-12T13:15:28;1.58;;;0.85;;
9052;SDS011;4561;47.450;7.516;2022-09-12T13:18:55;0.90;;;0.80;;
9052;SDS011;4561;47.450;7.516;2022-09-12T13:22:16;2.67;;;1.00;;
9052;SDS011;4561;47.450;7.516;2022-09-12T13:25:41;0.88;;;0.88;;
9052;SDS011;4561;47.450;7.516;2022-09-12T13:29:19;1.63;;;0.70;;
9052;SDS011;4561;47.450;7.516;2022-09-12T13:32:41;2.60;;;0.80;;
9052;SDS011;4561;47.450;7.516;2022-09-12T13:36:10;2.55;;;1.20;;
9052;SDS011;4561;47.450;7.516;2022-09-12T13:43:53;1.65;;;0.85;;
9052;SDS011;4561;47.450;7.516;2022-09-12T13:47:47;1.45;;;1.00;;
9052;SDS011;4561;47.450;7.516;2022-09-12T13:51:03;2.05;;;0.95;;
9052;SDS011;4561;47.450;7.516;2022-09-12T13:54:25;1.13;;;0.70;;
9052;SDS011;4561;47.450;7.516;2022-09-12T13:57:54;2.55;;;0.98;;
9052;SDS011;4561;47.450;7.516;2022-09-12T14:01:18;1.52;;;0.90;;
9052;SDS011;4561;47.450;7.516;2022-09-12T14:04:38;2.40;;;1.05;;
9052;SDS011;4561;47.450;7.516;2022-09-12T14:08:17;2.35;;;0.80;;
9052;SDS011;4561;47.450;7.516;2022-09-12T14:11:39;1.85;;;0.80;;
9052;SDS011;4561;47.450;7.516;2022-09-12T14:14:59;1.08;;;0.90;;
9052;SDS011;4561;47.450;7.516;2022-09-12T14:18:25;3.25;;;1.00;;
9052;SDS011;4561;47.450;7.516;2022-09-12T14:21:46;2.22;;;1.20;;
9052;SDS011;4561;47.450;7.516;2022-09-12T14:25:12;1.38;;;0.93;;
9052;SDS011;4561;47.450;7.516;2022-09-12T14:28:34;1.63;;;1.13;;
9052;SDS011;4561;47.450;7.516;2022-09-12T14:32:00;1.55;;;1.05;;
9052;SDS011;4561;47.450;7.516;2022-09-12T14:35:21;8.85;;;1.42;;
9052;SDS011;4561;47.450;7.516;2022-09-12T14:38:43;2.40;;;1.00;;
9052;SDS011;4561;47.450;7.516;2022-09-12T14:42:05;5.22;;;1.10;;
9052;SDS011;4561;47.450;7.516;2022-09-12T14:45:30;2.20;;;0.82;;
9052;SDS011;4561;47.450;7.516;2022-09-12T14:48:54;2.33;;;0.73;;
9052;SDS011;4561;47.450;7.516;2022-09-12T14:52:22;2.35;;;0.90;;
9052;SDS011;4561;47.450;7.516;2022-09-12T14:55:51;1.10;;;0.90;;
9052;SDS011;4561;47.450;7.516;2022-09-12T14:59:36;1.52;;;0.70;;
9052;SDS011;4561;47.450;7.516;2022-09-12T15:03:14;4.97;;;1.10;;
9052;SDS011;4561;47.450;7.516;2022-09-12T15:06:42;1.20;;;1.10;;
9052;SDS011;4561;47.450;7.516;2022-09-12T15:10:12;2.38;;;1.10;;
9052;SDS011;4561;47.450;7.516;2022-09-12T15:13:45;1.73;;;0.95;;
9052;SDS011;4561;47.450;7.516;2022-09-12T15:17:06;1.48;;;0.90;;
9052;SDS011;4561;47.450;7.516;2022-09-12T15:20:26;4.22;;;1.10;;
9052;SDS011;4561;47.450;7.516;2022-09-12T15:23:48;6.15;;;0.82;;
9052;SDS011;4561;47.450;7.516;2022-09-12T15:27:12;3.00;;;0.80;;
9052;SDS011;4561;47.450;7.516;2022-09-12T15:30:32;1.40;;;1.10;;
9052;SDS011;4561;47.450;7.516;2022-09-12T15:33:53;1.33;;;1.00;;
9052;SDS011;4561;47.450;7.516;2022-09-12T15:37:14;1.60;;;1.05;;
9052;SDS011;4561;47.450;7.516;2022-09-12T15:40:35;2.00;;;1.08;;
9052;SDS011;4561;47.450;7.516;2022-09-12T15:43:56;2.78;;;1.00;;
9052;SDS011;4561;47.450;7.516;2022-09-12T15:47:16;2.50;;;0.80;;
9052;SDS011;4561;47.450;7.516;2022-09-12T15:50:36;1.27;;;0.90;;
9052;SDS011;4561;47.450;7.516;2022-09-12T15:53:57;3.08;;;1.00;;
9052;SDS011;4561;47.450;7.516;2022-09-12T15:57:18;2.20;;;2.00;;
9052;SDS011;4561;47.450;7.516;2022-09-12T16:00:40;1.75;;;0.90;;
9052;SDS011;4561;47.450;7.516;2022-09-12T16:04:01;2.13;;;1.10;;
9052;SDS011;4561;47.450;7.516;2022-09-12T16:07:22;1.65;;;1.05;;
9052;SDS011;4561;47.450;7.516;2022-09-12T16:10:43;3.67;;;1.03;;
9052;SDS011;4561;47.450;7.516;2022-09-12T16:14:05;1.45;;;0.90;;
9052;SDS011;4561;47.450;7.516;2022-09-12T16:17:27;5.00;;;1.08;;
9052;SDS011;4561;47.450;7.516;2022-09-12T16:20:51;1.15;;;1.05;;
9052;SDS011;4561;47.450;7.516;2022-09-12T16:24:15;3.17;;;1.10;;
9052;SDS011;4561;47.450;7.516;2022-09-12T16:27:36;2.67;;;1.00;;
9052;SDS011;4561;47.450;7.516;2022-09-12T16:30:57;2.42;;;1.50;;
9052;SDS011;4561;47.450;7.516;2022-09-12T16:34:21;4.70;;;0.98;;
9052;SDS011;4561;47.450;7.516;2022-09-12T16:37:42;1.58;;;0.80;;
9052;SDS011;4561;47.450;7.516;2022-09-12T16:41:04;1.40;;;1.10;;
9052;SDS011;4561;47.450;7.516;2022-09-12T16:44:25;2.45;;;1.05;;
9052;SDS011;4561;47.450;7.516;2022-09-12T16:47:46;4.13;;;1.00;;
9052;SDS011;4561;47.450;7.516;2022-09-12T16:51:06;1.42;;;1.02;;
9052;SDS011;4561;47.450;7.516;2022-09-12T16:54:26;2.50;;;0.90;;
9052;SDS011;4561;47.450;7.516;2022-09-12T16:57:47;3.67;;;1.00;;
9052;SDS011;4561;47.450;7.516;2022-09-12T17:01:12;2.37;;;1.00;;
9052;SDS011;4561;47.450;7.516;2022-09-12T17:04:34;2.90;;;0.93;;
9052;SDS011;4561;47.450;7.516;2022-09-12T17:07:54;2.07;;;1.10;;
9052;SDS011;4561;47.450;7.516;2022-09-12T17:11:25;1.10;;;0.73;;
9052;SDS011;4561;47.450;7.516;2022-09-12T17:14:49;2.33;;;1.03;;
9052;SDS011;4561;47.450;7.516;2022-09-12T17:18:10;3.63;;;1.03;;
9052;SDS011;4561;47.450;7.516;2022-09-12T17:21:30;2.67;;;0.90;;
9052;SDS011;4561;47.450;7.516;2022-09-12T17:24:51;1.30;;;1.00;;
9052;SDS011;4561;47.450;7.516;2022-09-12T17:28:12;1.97;;;0.93;;
9052;SDS011;4561;47.450;7.516;2022-09-12T17:31:32;1.27;;;0.90;;
9052;SDS011;4561;47.450;7.516;2022-09-12T17:34:53;1.47;;;0.90;;
9052;SDS011;4561;47.450;7.516;2022-09-12T17:38:13;1.30;;;0.90;;
9052;SDS011;4561;47.450;7.516;2022-09-12T17:41:34;2.57;;;1.00;;
9052;SDS011;4561;47.450;7.516;2022-09-12T17:44:54;1.47;;;0.80;;
9052;SDS011;4561;47.450;7.516;2022-09-12T17:48:17;1.63;;;1.10;;
9052;SDS011;4561;47.450;7.516;2022-09-12T17:51:38;1.67;;;1.00;;
9052;SDS011;4561;47.450;7.516;2022-09-12T17:55:02;1.27;;;0.90;;
9052;SDS011;4561;47.450;7.516;2022-09-12T17:58:23;5.73;;;1.20;;
9052;SDS011;4561;47.450;7.516;2022-09-12T18:01:43;3.00;;;1.30;;
9052;SDS011;4561;47.450;7.516;2022-09-12T18:05:22;1.37;;;0.80;;
9052;SDS011;4561;47.450;7.516;2022-09-12T18:08:43;3.43;;;1.27;;
9052;SDS011;4561;47.450;7.516;2022-09-12T18:12:03;3.90;;;1.27;;
9052;SDS011;4561;47.450;7.516;2022-09-12T18:15:24;4.33;;;1.17;;
9052;SDS011;4561;47.450;7.516;2022-09-12T18:18:45;1.20;;;0.93;;
9052;SDS011;4561;47.450;7.516;2022-09-12T18:22:05;4.07;;;1.30;;
9052;SDS011;4561;47.450;7.516;2022-09-12T18:25:26;1.40;;;1.20;;
9052;SDS011;4561;47.450;7.516;2022-09-12T18:28:46;3.50;;;1.33;;
9052;SDS011;4561;47.450;7.516;2022-09-12T18:32:06;1.70;;;1.23;;
9052;SDS011;4561;47.450;7.516;2022-09-12T18:35:30;1.73;;;1.30;;
9052;SDS011;4561;47.450;7.516;2022-09-12T18:38:51;3.17;;;1.00;;
9052;SDS011;4561;47.450;7.516;2022-09-12T18:42:11;1.10;;;1.00;;
9052;SDS011;4561;47.450;7.516;2022-09-12T18:45:34;1.63;;;1.23;;
9052;SDS011;4561;47.450;7.516;2022-09-12T18:48:55;2.30;;;1.20;;
9052;SDS011;4561;47.450;7.516;2022-09-12T18:52:18;2.70;;;0.87;;
9052;SDS011;4561;47.450;7.516;2022-09-12T18:55:39;3.03;;;1.20;;
9052;SDS011;4561;47.450;7.516;2022-09-12T18:59:00;2.00;;;0.90;;
9052;SDS011;4561;47.450;7.516;2022-09-12T19:02:21;3.63;;;1.17;;
9052;SDS011;4561;47.450;7.516;2022-09-12T19:05:47;1.17;;;1.07;;
9052;SDS011;4561;47.450;7.516;2022-09-12T19:09:10;4.10;;;1.10;;
9052;SDS011;4561;47.450;7.516;2022-09-12T19:12:31;4.33;;;1.23;;
9052;SDS011;4561;47.450;7.516;2022-09-12T19:15:52;1.80;;;1.30;;
9052;SDS011;4561;47.450;7.516;2022-09-12T19:19:12;1.53;;;1.07;;
9052;SDS011;4561;47.450;7.516;2022-09-12T19:22:35;3.80;;;1.17;;
9052;SDS011;4561;47.450;7.516;2022-09-12T19:25:59;4.37;;;1.20;;
9052;SDS011;4561;47.450;7.516;2022-09-12T19:29:22;2.07;;;1.10;;
9052;SDS011;4561;47.450;7.516;2022-09-12T19:32:43;2.73;;;1.40;;
9052;SDS011;4561;47.450;7.516;2022-09-12T19:36:04;3.33;;;1.20;;
9052;SDS011;4561;47.450;7.516;2022-09-12T19:39:26;1.67;;;1.03;;
9052;SDS011;4561;47.450;7.516;2022-09-12T19:42:46;1.60;;;1.07;;
9052;SDS011;4561;47.450;7.516;2022-09-12T19:46:06;1.73;;;1.07;;
9052;SDS011;4561;47.450;7.516;2022-09-12T19:49:27;2.07;;;1.10;;
9052;SDS011;4561;47.450;7.516;2022-09-12T19:52:47;2.43;;;1.43;;
9052;SDS011;4561;47.450;7.516;2022-09-12T19:56:08;2.20;;;1.10;;
9052;SDS011;4561;47.450;7.516;2022-09-12T19:59:30;2.03;;;1.17;;
9052;SDS011;4561;47.450;7.516;2022-09-12T20:02:51;2.53;;;1.27;;
9052;SDS011;4561;47.450;7.516;2022-09-12T20:06:14;3.63;;;1.33;;
9052;SDS011;4561;47.450;7.516;2022-09-12T20:09:36;1.97;;;1.10;;
9052;SDS011;4561;47.450;7.516;2022-09-12T20:12:57;1.20;;;1.03;;
9052;SDS011;4561;47.450;7.516;2022-09-12T20:16:24;1.23;;;1.10;;
9052;SDS011;4561;47.450;7.516;2022-09-12T20:19:47;3.93;;;1.30;;
9052;SDS011;4561;47.450;7.516;2022-09-12T20:23:08;1.63;;;1.00;;
9052;SDS011;4561;47.450;7.516;2022-09-12T20:26:28;6.07;;;1.10;;
9052;SDS011;4561;47.450;7.516;2022-09-12T20:29:49;4.37;;;1.30;;
9052;SDS011;4561;47.450;7.516;2022-09-12T20:33:12;2.47;;;1.20;;
9052;SDS011;4561;47.450;7.516;2022-09-12T20:36:32;3.23;;;1.40;;
9052;SDS011;4561;47.450;7.516;2022-09-12T20:39:53;4.73;;;1.60;;
9052;SDS011;4561;47.450;7.516;2022-09-12T20:43:13;4.57;;;1.30;;
9052;SDS011;4561;47.450;7.516;2022-09-12T20:46:34;2.03;;;1.40;;
9052;SDS011;4561;47.450;7.516;2022-09-12T20:49:54;2.33;;;1.00;;
9052;SDS011;4561;47.450;7.516;2022-09-12T20:53:15;2.63;;;1.20;;
9052;SDS011;4561;47.450;7.516;2022-09-12T20:56:37;1.63;;;1.20;;
9052;SDS011;4561;47.450;7.516;2022-09-12T20:59:58;2.60;;;1.10;;
9052;SDS011;4561;47.450;7.516;2022-09-12T21:03:18;2.27;;;1.30;;
9052;SDS011;4561;47.450;7.516;2022-09-12T21:06:39;1.83;;;1.30;;
9052;SDS011;4561;47.450;7.516;2022-09-12T21:09:59;2.40;;;1.20;;
9052;SDS011;4561;47.450;7.516;2022-09-12T21:13:19;1.93;;;1.30;;
9052;SDS011;4561;47.450;7.516;2022-09-12T21:16:43;3.77;;;1.50;;
9052;SDS011;4561;47.450;7.516;2022-09-12T21:20:03;2.00;;;1.30;;
9052;SDS011;4561;47.450;7.516;2022-09-12T21:23:24;5.30;;;1.50;;
9052;SDS011;4561;47.450;7.516;2022-09-12T21:26:45;2.47;;;1.40;;
9052;SDS011;4561;47.450;7.516;2022-09-12T21:30:06;3.27;;;1.40;;
9052;SDS011;4561;47.450;7.516;2022-09-12T21:33:26;2.50;;;1.30;;
9052;SDS011;4561;47.450;7.516;2022-09-12T21:36:49;1.60;;;1.37;;
9052;SDS011;4561;47.450;7.516;2022-09-12T21:40:10;2.70;;;1.23;;
9052;SDS011;4561;47.450;7.516;2022-09-12T21:43:30;4.03;;;1.50;;
9052;SDS011;4561;47.450;7.516;2022-09-12T21:46:50;1.43;;;1.30;;
9052;SDS011;4561;47.450;7.516;2022-09-12T21:50:11;3.43;;;1.67;;
9052;SDS011;4561;47.450;7.516;2022-09-12T21:53:32;2.57;;;1.47;;
9052;SDS011;4561;47.450;7.516;2022-09-12T21:56:52;1.80;;;1.40;;
9052;SDS011;4561;47.450;7.516;2022-09-12T22:00:13;1.47;;;1.30;;
9052;SDS011;4561;47.450;7.516;2022-09-12T22:03:34;1.47;;;1.07;;
9052;SDS011;4561;47.450;7.516;2022-09-12T22:06:55;5.87;;;2.00;;
9052;SDS011;4561;47.450;7.516;2022-09-12T22:10:15;6.57;;;1.70;;
9052;SDS011;4561;47.450;7.516;2022-09-12T22:13:36;4.30;;;1.33;;
9052;SDS011;4561;47.450;7.516;2022-09-12T22:17:00;5.23;;;1.57;;
9052;SDS011;4561;47.450;7.516;2022-09-12T22:20:20;1.93;;;1.30;;
9052;SDS011;4561;47.450;7.516;2022-09-12T22:23:44;3.33;;;1.47;;
9052;SDS011;4561;47.450;7.516;2022-09-12T22:27:23;3.50;;;1.60;;
9052;SDS011;4561;47.450;7.516;2022-09-12T22:30:46;1.53;;;1.30;;
9052;SDS011;4561;47.450;7.516;2022-09-12T22:34:09;2.13;;;1.37;;
9052;SDS011;4561;47.450;7.516;2022-09-12T22:37:32;3.30;;;1.93;;
9052;SDS011;4561;47.450;7.516;2022-09-12T22:40:55;3.53;;;1.20;;
9052;SDS011;4561;47.450;7.516;2022-09-12T22:44:20;3.47;;;1.33;;
9052;SDS011;4561;47.450;7.516;2022-09-12T22:47:41;3.33;;;1.57;;
9052;SDS011;4561;47.450;7.516;2022-09-12T22:51:01;6.30;;;1.57;;
9052;SDS011;4561;47.450;7.516;2022-09-12T22:54:22;2.03;;;1.40;;
9052;SDS011;4561;47.450;7.516;2022-09-12T22:57:42;2.60;;;1.50;;
9052;SDS011;4561;47.450;7.516;2022-09-12T23:01:03;4.17;;;1.57;;
9052;SDS011;4561;47.450;7.516;2022-09-12T23:04:25;2.20;;;1.63;;
9052;SDS011;4561;47.450;7.516;2022-09-12T23:07:45;3.00;;;1.50;;
9052;SDS011;4561;47.450;7.516;2022-09-12T23:14:30;4.63;;;1.80;;
9052;SDS011;4561;47.450;7.516;2022-09-12T23:17:53;2.37;;;1.50;;
9052;SDS011;4561;47.450;7.516;2022-09-12T23:21:14;3.17;;;1.30;;
9052;SDS011;4561;47.450;7.516;2022-09-12T23:24:41;3.00;;;1.37;;
9052;SDS011;4561;47.450;7.516;2022-09-12T23:28:03;4.70;;;1.80;;